Pixley, CA (93256)

7:56 PM PST en Marzo 05, 2015 (GMT -0800)
APRSWXNET Allensworth CA US | Change Station
CLOSE
Current Station
Estación meteorológica personal
Location: Earlimart, CA
Altura: 213 ft
Estaciones meteorológicas cercanas

Alt 213 ft 35.86 °N, 119.39 °W | Updated 24 minutes ago

Despejado
Despejado
55 ° F
Sensación térmica 55 ° F
N
0
Viento Variable Viento desde Norte
Gusts 0.0 mph

Hoy
Alta -- | Baja -- ° F
--% Posibilidad de precipitaciones
Ayer
Alta -- | Baja -- ° F
Precip. -- pul
6:22 AM 5:55 PM
Luna llena, 100% visible
Presión 30.27 pul
Visibilidad 10.0 Millas
Nubes Despejado
Punto de rocío 43 ° F
Humedad 64%
Precipitaciones pul
Espesor de la nieve No disponible.
UV 0 de una escala de 12
Polen 8.90 de una escala de 12
Calidad del aire No disponible.
Flu Activity No disponible.
METAR KPTV 060335Z AUTO 00000KT 10SM CLR 13/06 A3027 RMK AO1

More Conditions Fewer Conditions

Presión 30.27 pul
Visibilidad 10.0 Millas
Nubes Despejado
Punto de rocío 43 ° F
Humedad 64%
Precipitaciones pul
Espesor de la nieve No disponible.
UV 0 de una escala de 12
Polen 8.90 de una escala de 12
Calidad del aire No disponible.
Flu Activity No disponible.
METAR KPTV 060335Z AUTO 00000KT 10SM CLR 13/06 A3027 RMK AO1

More Conditions Fewer Conditions

10-Day Weather Forecast

Almanac

Astronomía

Mar. 05, 2015 Salida Puesta
Hora real
Crepúsculo civil
Crepúsculo náutico
Crepúsculo astronómico
Luna
Horas de luz
Horas de luz
Tomorrow will be .
, % of the Moon is Illuminated

Extremos de hoy

Máximos del estado Bajos del estado

Community

WunderPhotos

Upload Photos

1,803,171 ¡fotos cargadas!

WunderBlogs® & News

Nearby

Calidad del aire

  Calidad del aire Índice AQ Contaminante
Not available.

Grosos de nieve

Estación Profundido Altura

Actividad de terremotos

Ciudad Distance Mag. Tiempo y dato
Magnitud mínima muestra es 2,5.

Temperaturas de aguas costeras

Lugar Temperatura

Estaciones meteorológicas cercanas